Stations météo

réclame
Mon MeteoGroup
Altenstadt, Allemagne (10954): Température de l'air & dewpoint: 19.03.2019 11:00:00 - 25.03.2019 11:00:00 (CET)Altenstadt, Allemagne (10954): Vitesse du vent: 19.03.2019 11:00:00 - 25.03.2019 11:00:00 (CET)Altenstadt, Allemagne (10954): Direction du vent: 19.03.2019 11:00:00 - 25.03.2019 11:00:00 (CET)Altenstadt, Allemagne (10954): visibility: 19.03.2019 11:00:00 - 25.03.2019 11:00:00 (CET)
Date & Time tt [°C] td [°C] ff [km/h] ff [knt] dd vv [km]
25.03.2019 11:00:00 4,4 -0,3 25 14 NW 12
25.03.2019 10:00:00 4,3 1,2 25 14 NW 7
25.03.2019 09:00:00 4,9 1,9 18 10 WNW 7
25.03.2019 08:00:00 4,9 2,2 18 10 WNW 6
25.03.2019 07:00:00 4,7 2,5 18 10 WNW 5
25.03.2019 06:00:00 5,0 2,5 18 10 NW 5
25.03.2019 05:00:00 5,4 3,1 14 8 WNW 6
25.03.2019 04:00:00 5,9 3,7 18 10 NW -
25.03.2019 03:00:00 6,2 3,7 14 8 NW -
25.03.2019 02:00:00 6,2 3,7 11 6 W -
25.03.2019 01:00:00 5,8 3,0 7 4 WSW -
25.03.2019 00:00:00 5,6 3,2 7 4 WSW -
24.03.2019 23:00:00 7,1 4,2 7 4 W -
24.03.2019 22:00:00 8,0 4,6 7 4 ENE -
24.03.2019 21:00:00 8,4 3,7 14 8 NNW -
24.03.2019 20:00:00 10,3 3,1 22 12 NNW -
24.03.2019 19:00:00 10,2 0,0 18 10 NW -
24.03.2019 18:00:00 13,3 -0,8 22 12 W -
24.03.2019 17:00:00 15,1 -0,2 29 16 WNW -
24.03.2019 16:00:00 16,2 -1,2 29 16 W -
24.03.2019 15:00:00 16,7 -0,7 25 14 W -
24.03.2019 14:00:00 16,4 0,0 22 12 W -
24.03.2019 13:00:00 15,2 2,8 7 4 ESE -
24.03.2019 12:00:00 14,1 2,5 11 6 E -
24.03.2019 11:00:00 13,7 1,5 4 2 NNE -
24.03.2019 10:00:00 10,7 2,9 7 4 SW -
24.03.2019 09:00:00 6,2 1,5 4 2 N -
24.03.2019 08:00:00 1,9 -0,4 4 2 SW -
24.03.2019 07:00:00 0,7 -0,7 11 6 WSW -
24.03.2019 06:00:00 -0,4 -1,6 7 4 W -
24.03.2019 05:00:00 -0,3 -2,1 7 4 WSW -
24.03.2019 04:00:00 0,9 -0,5 7 4 SW -
24.03.2019 03:00:00 1,9 -0,3 7 4 W -
24.03.2019 02:00:00 3,3 0,1 4 2 WSW -
24.03.2019 01:00:00 3,6 0,2 11 6 WSW -
24.03.2019 00:00:00 4,0 0,2 7 4 WSW -
23.03.2019 23:00:00 5,1 0,2 7 4 SW -
23.03.2019 22:00:00 4,3 0,5 7 4 WSW -
23.03.2019 21:00:00 6,8 1,6 4 2 SW -
23.03.2019 20:00:00 8,7 1,7 4 2 N -
23.03.2019 19:00:00 11,2 1,1 7 4 NNE -
23.03.2019 18:00:00 13,9 0,6 11 6 NNE -
23.03.2019 17:00:00 15,3 0,2 18 10 NE -
23.03.2019 16:00:00 16,4 0,0 14 8 NNE -
23.03.2019 15:00:00 16,4 0,5 14 8 E -
23.03.2019 14:00:00 15,9 0,1 14 8 ENE -
23.03.2019 13:00:00 16,2 -1,6 7 4 W -
23.03.2019 12:00:00 15,1 -2,2 7 4 W -
23.03.2019 11:00:00 14,0 -1,5 11 6 WSW -
23.03.2019 10:00:00 11,3 0,3 7 4 SSW -
23.03.2019 09:00:00 6,8 -0,9 4 2 N -
23.03.2019 08:00:00 2,1 -1,2 7 4 W -
23.03.2019 07:00:00 0,2 -2,0 7 4 WSW -
23.03.2019 06:00:00 -0,6 -2,1 11 6 W -
23.03.2019 05:00:00 -0,4 -2,1 11 6 W -
23.03.2019 04:00:00 -0,2 -1,6 11 6 W -
23.03.2019 03:00:00 0,9 -0,6 7 4 WSW -
23.03.2019 02:00:00 1,1 -0,5 7 4 W -
23.03.2019 01:00:00 2,3 -0,4 7 4 WSW -
23.03.2019 00:00:00 1,8 -1,0 7 4 SW -
22.03.2019 23:00:00 2,3 -0,2 7 4 WSW -
22.03.2019 22:00:00 3,9 0,2 7 4 WSW -
22.03.2019 21:00:00 4,9 0,5 7 4 SW 60
22.03.2019 20:00:00 7,1 1,4 7 4 W 60
22.03.2019 19:00:00 9,4 0,4 4 2 NE 60
22.03.2019 18:00:00 11,8 1,4 7 4 NE 60
22.03.2019 17:00:00 12,7 0,0 11 6 ENE 60
22.03.2019 16:00:00 13,8 -1,6 7 4 NE 60
22.03.2019 15:00:00 13,3 -1,2 11 6 ENE 60
22.03.2019 14:00:00 13,1 -0,3 14 8 ENE 60
22.03.2019 13:00:00 12,0 0,0 14 8 E 60
22.03.2019 12:00:00 11,2 0,5 11 6 ENE 60
22.03.2019 11:00:00 10,6 -1,0 7 4 WSW 30
22.03.2019 10:00:00 7,2 0,2 4 2 SW 25
22.03.2019 09:00:00 3,1 -1,9 4 2 N 25
22.03.2019 08:00:00 -0,9 -3,0 4 2 W 20
22.03.2019 07:00:00 -2,7 -4,1 7 4 SW 15
22.03.2019 06:00:00 -2,8 -3,8 7 4 WSW 12
22.03.2019 05:00:00 -2,3 -3,8 4 2 SW 12
22.03.2019 04:00:00 -2,9 -4,8 4 2 SW -
22.03.2019 03:00:00 -1,8 -3,7 7 4 W -
22.03.2019 02:00:00 -1,2 -3,7 4 2 E -
22.03.2019 01:00:00 -0,4 -3,3 4 2 N -
22.03.2019 00:00:00 1,4 -3,7 4 2 NE -
21.03.2019 23:00:00 3,2 -3,5 4 2 ENE -
21.03.2019 22:00:00 3,8 -3,0 4 2 N -
21.03.2019 21:00:00 3,6 -2,9 7 4 ENE 20
21.03.2019 20:00:00 4,3 -2,4 7 4 ENE 40
21.03.2019 19:00:00 5,5 -2,9 14 8 E 70
21.03.2019 18:00:00 8,9 -3,7 18 10 E 70
21.03.2019 17:00:00 10,1 -4,4 18 10 E 70
21.03.2019 16:00:00 10,2 -4,8 22 12 E 70
21.03.2019 15:00:00 10,3 -4,4 22 12 E 70
21.03.2019 14:00:00 9,2 -4,7 18 10 E 70
21.03.2019 13:00:00 8,1 -6,0 25 14 ESE 70
21.03.2019 12:00:00 6,6 -6,0 29 16 E 70
21.03.2019 11:00:00 5,5 -4,9 32 18 E 70
21.03.2019 10:00:00 3,8 -4,7 29 16 E 75
21.03.2019 09:00:00 1,4 -3,6 18 10 ENE 75
21.03.2019 08:00:00 -0,4 -3,8 14 8 E 75
21.03.2019 07:00:00 -2,4 -5,0 14 8 E 75
21.03.2019 06:00:00 -2,3 -4,4 7 4 E 70
21.03.2019 05:00:00 -3,1 -5,0 14 8 ENE 60
21.03.2019 04:00:00 -2,1 -4,7 7 4 ENE -
21.03.2019 03:00:00 -2,1 -4,9 11 6 E -
21.03.2019 02:00:00 -1,7 -5,1 11 6 ENE -
21.03.2019 01:00:00 -1,8 -5,8 11 6 ENE -
21.03.2019 00:00:00 -0,9 -5,6 7 4 NE -
20.03.2019 23:00:00 -0,3 -5,4 7 4 NE -
20.03.2019 22:00:00 0,3 -5,5 7 4 NE -
20.03.2019 21:00:00 0,7 -5,0 7 4 ENE 20
20.03.2019 20:00:00 1,5 -4,8 7 4 ENE 25
20.03.2019 19:00:00 3,0 -4,8 11 6 E 45
20.03.2019 18:00:00 5,1 -5,4 18 10 E 45
20.03.2019 17:00:00 6,1 -6,3 18 10 E 45
20.03.2019 16:00:00 6,3 -5,7 18 10 E 40
20.03.2019 15:00:00 6,2 -5,9 14 8 ENE 45
20.03.2019 14:00:00 5,8 -6,1 14 8 ENE 45
20.03.2019 13:00:00 5,8 -4,9 14 8 ENE 45
20.03.2019 12:00:00 4,2 -6,0 14 8 E 45
20.03.2019 11:00:00 3,5 -4,9 11 6 E 40
20.03.2019 10:00:00 2,8 -2,6 4 2 N 40
20.03.2019 09:00:00 -0,4 -3,0 7 4 WSW 50
20.03.2019 08:00:00 -3,4 -4,5 4 2 WSW 50
20.03.2019 07:00:00 -4,0 -4,5 4 2 N 45
20.03.2019 06:00:00 -3,6 -4,2 4 2 W 15
20.03.2019 05:00:00 -4,0 -4,4 7 4 W 15
20.03.2019 04:00:00 - - - - - -
20.03.2019 03:00:00 - - - - - -
20.03.2019 02:00:00 - - - - - -
20.03.2019 01:00:00 -2,2 -3,3 7 4 SW -
20.03.2019 00:00:00 -2,2 -3,1 7 4 WSW -
19.03.2019 23:00:00 -1,0 -2,8 4 2 WSW -
19.03.2019 22:00:00 -1,6 -2,8 7 4 WSW -
19.03.2019 21:00:00 -0,1 -2,8 4 2 SW 20
19.03.2019 20:00:00 0,7 -2,4 4 2 WNW 20
19.03.2019 19:00:00 2,5 -4,0 4 2 N 20
19.03.2019 18:00:00 3,1 -2,6 11 6 NE 30
19.03.2019 17:00:00 4,2 -3,9 14 8 NE 30
19.03.2019 16:00:00 4,6 -2,8 11 6 N 30
19.03.2019 15:00:00 4,4 -4,0 4 2 NNW 30
19.03.2019 14:00:00 3,9 -4,0 7 4 NE 50
19.03.2019 13:00:00 3,5 -1,8 7 4 NNE 50
19.03.2019 12:00:00 4,9 -2,6 7 4 S 40
19.03.2019 11:00:00 2,8 -1,7 7 4 NE 30

tt = Température de l'air
td = dewpoint
ff = Vitesse du vent
dd = Direction du vent
vv = visibility

stations d'obs. à proximité